Time;durP1;ratioP1;P1;durP2;ratioP2;P2;SDS_P1;SDS_P2;PMS_P1;PMS_P2;Temp;Humidity;BMP_temperature;BMP_pressure;BME280_temperature;BME280_humidity;BME280_pressure;Samples;Min_cycle;Max_cycle;Signal;HPM_P1;HPM_P2
2023/05/03 18:52:44;;;;;;;;;;;;;;;17.07;36.71;98713.97;5819886;24;20909;-61
2023/05/03 18:55:09;;;;;;;;;;;;;;;16.94;38.73;98712.53;4804284;29;19964;-64
2023/05/03 18:57:35;;;;;;;;;;;;;;;16.81;37.48;98715.38;4809933;29;19973;-64
2023/05/03 19:00:01;;;;;;;;;;;;;;;17.29;41.56;98712.91;4810762;29;19964;-64
2023/05/03 19:02:29;;;;;;;;;;;;;;;16.95;39.44;98720.31;4822701;29;19964;-64
2023/05/03 19:04:54;;;;;;;;;;;;;;;16.61;40.19;98709.94;4808295;29;19921;-64
2023/05/03 19:07:20;;;;;;;;;;;;;;;16.42;40.86;98723.09;4806182;29;19935;-63
2023/05/03 19:09:45;;;;;;;;;;;;;;;16.28;42.21;98721.59;4805663;29;20360;-62
2023/05/03 19:12:10;;;;;;;;;;;;;;;16.03;42.33;98728.06;4804953;29;19921;-65
2023/05/03 19:14:36;;;;;;;;;;;;;;;15.89;42.31;98736.31;4807229;29;19932;-63
2023/05/03 19:17:01;;;;;;;;;;;;;;;15.58;43.83;98740.56;4795302;29;19921;-62
2023/05/03 19:19:26;;;;;;;;;;;;;;;15.44;44.82;98731.94;4814261;29;19943;-63
2023/05/03 19:21:52;;;;;;;;;;;;;;;15.35;45.23;98738.00;4807952;29;20019;-64
2023/05/03 19:24:17;;;;;;;;;;;;;;;15.28;45.90;98742.09;4807000;29;19929;-64
2023/05/03 19:26:42;;;;;;;;;;;;;;;15.10;44.82;98740.88;4804806;29;20323;-64
2023/05/03 19:29:08;;;;;;;;;;;;;;;15.04;45.53;98749.31;4807354;29;20402;-63
2023/05/03 19:31:33;;;;;;;;;;;;;;;14.89;46.61;98738.94;4801215;29;19974;-63
2023/05/03 19:33:58;;;;;;;;;;;;;;;14.84;47.64;98748.22;4806428;29;19960;-64
2023/05/03 19:36:23;;;;;;;;;;;;;;;14.70;47.44;98751.91;4806011;29;19925;-65
2023/05/03 19:38:48;;;;;;;;;;;;;;;14.61;48.61;98755.25;4806001;29;19921;-63
2023/05/03 19:41:14;;;;;;;;;;;;;;;14.54;48.60;98751.41;4807050;29;20379;-65
2023/05/03 19:43:39;;;;;;;;;;;;;;;14.45;48.78;98750.25;4803019;29;20489;-63
2023/05/03 19:46:04;;;;;;;;;;;;;;;14.37;48.19;98750.84;4803899;29;19944;-65
2023/05/03 19:48:29;;;;;;;;;;;;;;;14.29;48.19;98747.94;4804414;29;19921;-64
2023/05/03 19:50:55;;;;;;;;;;;;;;;14.19;48.46;98745.16;4806592;29;19921;-64
2023/05/03 19:53:20;;;;;;;;;;;;;;;14.16;48.60;98742.75;4805384;29;19929;-64
2023/05/03 19:55:58;;;;;;;;;;;;;;;14.00;48.82;98745.69;4810779;29;20442;-63
2023/05/03 19:58:24;;;;;;;;;;;;;;;13.81;50.06;98757.69;4797063;29;20384;-63
2023/05/03 20:00:49;;;;;;;;;;;;;;;13.78;50.44;98753.47;4785259;29;20069;-63
2023/05/03 20:03:14;;;;;;;;;;;;;;;13.67;51.64;98756.06;4804636;29;20050;-63
2023/05/03 20:05:40;;;;;;;;;;;;;;;13.63;51.78;98759.88;4806771;29;19917;-64
2023/05/03 20:08:05;;;;;;;;;;;;;;;13.52;52.08;98758.88;4805138;29;19944;-64
2023/05/03 20:10:35;;;;;;;;;;;;;;;13.50;52.01;98762.56;4806036;29;19917;-64
2023/05/03 20:13:03;;;;;;;;;;;;;;;13.40;53.05;98764.16;4806012;29;19922;-63
2023/05/03 20:15:31;;;;;;;;;;;;;;;13.71;64.99;98762.78;4806214;29;21341;-63
2023/05/03 20:17:56;;;;;;;;;;;;;;;13.44;53.40;98762.97;4788017;29;20015;-65
2023/05/03 20:20:21;;;;;;;;;;;;;;;13.27;53.84;98758.91;4801733;29;20016;-64
2023/05/03 20:22:49;;;;;;;;;;;;;;;13.15;54.19;98760.59;4806033;29;20379;-63
2023/05/03 20:25:15;;;;;;;;;;;;;;;13.07;54.82;98757.63;4814679;29;19966;-64
2023/05/03 20:27:40;;;;;;;;;;;;;;;13.00;55.07;98762.50;4795814;29;19964;-64
2023/05/03 20:30:06;;;;;;;;;;;;;;;12.94;55.02;98773.47;4797640;29;19967;-66
2023/05/03 20:32:31;;;;;;;;;;;;;;;12.81;55.72;98767.38;4804435;29;19989;-64
2023/05/03 20:34:56;;;;;;;;;;;;;;;12.76;55.14;98764.19;4804463;29;19921;-63
2023/05/03 20:37:21;;;;;;;;;;;;;;;12.86;57.32;98767.88;4806331;29;20376;-64
2023/05/03 20:39:47;;;;;;;;;;;;;;;12.80;57.51;98765.66;4803279;29;20399;-64
2023/05/03 20:42:12;;;;;;;;;;;;;;;12.71;57.53;98766.31;4802367;29;20383;-63
2023/05/03 20:44:37;;;;;;;;;;;;;;;12.79;60.31;98769.25;4806638;29;20303;-64
2023/05/03 20:47:03;;;;;;;;;;;;;;;12.93;60.21;98779.66;4806508;29;20291;-64
2023/05/03 20:49:28;;;;;;;;;;;;;;;12.87;59.53;98769.56;4810071;29;19925;-64
2023/05/03 20:51:55;;;;;;;;;;;;;;;12.85;58.09;98768.00;4806772;29;20530;-63
2023/05/03 20:54:20;;;;;;;;;;;;;;;12.80;58.36;98776.19;4800082;29;20304;-62
2023/05/03 20:56:45;;;;;;;;;;;;;;;12.74;57.95;98776.63;4803470;29;20011;-64
2023/05/03 20:59:11;;;;;;;;;;;;;;;12.63;58.42;98779.13;4799695;29;20016;-64
2023/05/03 21:01:37;;;;;;;;;;;;;;;12.57;58.75;98775.97;4804451;29;20409;-64
